createdAt,value
2023-02-20T00:00:47.392Z,78.00
2023-02-20T00:05:48.054Z,78.36
2023-02-20T00:10:48.659Z,77.76
2023-02-20T00:15:50.642Z,77.55
2023-02-20T00:20:51.219Z,77.59
2023-02-20T00:25:51.799Z,77.36
2023-02-20T00:30:53.791Z,77.65
2023-02-20T00:35:54.421Z,77.55
2023-02-20T00:40:55.095Z,77.39
2023-02-20T00:45:57.015Z,77.33
2023-02-20T00:50:57.591Z,77.69
2023-02-20T00:55:58.195Z,77.81
2023-02-20T01:01:00.147Z,78.01
2023-02-20T01:06:00.746Z,77.46
2023-02-20T01:11:02.258Z,77.24
2023-02-20T01:16:05.360Z,77.63
2023-02-20T01:21:06.320Z,78.36
2023-02-20T01:26:06.925Z,77.80
2023-02-20T01:31:09.719Z,77.22
2023-02-20T01:36:11.407Z,77.59
2023-02-20T01:41:13.164Z,77.54
2023-02-20T01:46:45.725Z,77.39
2023-02-20T01:51:50.587Z,77.73
2023-02-20T01:56:52.902Z,77.53
2023-02-20T02:01:54.937Z,77.37
2023-02-20T02:06:55.993Z,77.11
2023-02-20T02:11:56.885Z,77.11
2023-02-20T02:17:21.377Z,76.99
2023-02-20T02:22:44.980Z,77.44
2023-02-20T02:28:13.716Z,78.03
2023-02-20T02:33:49.993Z,77.44
2023-02-20T02:39:00.726Z,77.85
2023-02-20T02:44:07.562Z,77.88
2023-02-20T02:49:15.635Z,78.64
2023-02-20T02:54:22.152Z,78.78
2023-02-20T02:59:27.347Z,78.88
2023-02-20T03:04:30.946Z,78.97
2023-02-20T03:09:37.538Z,79.03
2023-02-20T03:15:01.342Z,78.70
2023-02-20T03:20:06.068Z,79.01
2023-02-20T03:25:13.083Z,79.90
2023-02-20T03:30:18.533Z,80.88
2023-02-20T03:35:38.665Z,80.01
2023-02-20T03:41:00.377Z,79.73
2023-02-20T03:46:04.604Z,79.02
2023-02-20T03:51:06.951Z,78.13
2023-02-20T03:56:20.279Z,78.96
2023-02-20T04:01:25.501Z,78.42
2023-02-20T04:06:30.942Z,78.15
2023-02-20T04:11:37.148Z,78.42
2023-02-20T04:16:43.593Z,77.99
2023-02-20T04:21:49.215Z,78.25
2023-02-20T04:26:51.888Z,78.92
2023-02-20T04:31:52.579Z,78.25
2023-02-20T04:37:02.063Z,78.86
2023-02-20T04:42:04.225Z,77.93
2023-02-20T04:47:07.458Z,78.82
2023-02-20T04:52:09.263Z,78.63
2023-02-20T04:57:12.156Z,78.83
2023-02-20T05:02:12.802Z,78.03
2023-02-20T05:07:13.355Z,78.67
2023-02-20T05:12:15.311Z,78.77
2023-02-20T05:17:15.885Z,79.50
2023-02-20T05:22:23.104Z,77.96
2023-02-20T05:27:25.885Z,78.88
2023-02-20T05:32:28.096Z,77.25
2023-02-20T05:37:29.358Z,77.13
2023-02-20T05:42:31.245Z,75.71
2023-02-20T05:47:31.911Z,75.74
2023-02-20T05:52:32.616Z,75.18
2023-02-20T05:57:34.583Z,76.18
2023-02-20T06:02:35.294Z,75.50
2023-02-20T06:07:36.315Z,75.54
2023-02-20T06:12:38.307Z,75.23
2023-02-20T06:17:38.914Z,75.52
2023-02-20T06:22:40.059Z,74.27
2023-02-20T06:27:42.047Z,73.60
2023-02-20T06:32:42.659Z,73.94
2023-02-20T06:37:43.219Z,73.18
2023-02-20T06:42:45.130Z,72.77
2023-02-20T06:47:45.768Z,72.74
2023-02-20T06:52:46.355Z,72.48
2023-02-20T06:57:49.364Z,72.15
2023-02-20T07:02:49.957Z,70.56
2023-02-20T07:07:50.560Z,70.36
2023-02-20T07:12:52.474Z,69.15
2023-02-20T07:17:53.364Z,68.36
2023-02-20T07:22:54.960Z,66.07
2023-02-20T07:27:56.919Z,66.51
2023-02-20T07:32:57.572Z,64.18
2023-02-20T07:37:58.244Z,63.86
2023-02-20T07:43:00.189Z,64.32
2023-02-20T07:48:03.246Z,62.61
2023-02-20T07:53:03.883Z,61.16
2023-02-20T07:58:05.775Z,59.46
2023-02-20T08:03:07.420Z,58.91
2023-02-20T08:08:07.990Z,58.97
2023-02-20T08:13:09.881Z,58.64
2023-02-20T08:18:23.015Z,58.53
2023-02-20T08:23:25.867Z,57.34
2023-02-20T08:28:27.805Z,57.04
2023-02-20T08:33:28.487Z,56.92
2023-02-20T08:38:31.666Z,56.59
2023-02-20T08:43:33.705Z,56.23
2023-02-20T08:48:34.666Z,55.31
2023-02-20T08:53:38.500Z,55.82
2023-02-20T08:58:40.414Z,55.44
2023-02-20T09:03:41.840Z,55.29
2023-02-20T09:08:42.565Z,54.38
2023-02-20T09:13:45.842Z,54.20
2023-02-20T09:18:46.845Z,54.43
2023-02-20T09:23:47.541Z,54.30
2023-02-20T09:28:49.514Z,54.73
2023-02-20T09:33:51.637Z,54.51
2023-02-20T09:38:52.378Z,54.77
2023-02-20T09:44:05.799Z,54.33
2023-02-20T09:49:13.430Z,54.96
2023-02-20T09:54:18.526Z,54.29
2023-02-20T09:59:25.060Z,54.00
2023-02-20T10:04:31.698Z,52.92
2023-02-20T10:09:35.201Z,52.27
2023-02-20T10:14:53.923Z,52.22
2023-02-20T10:20:00.462Z,51.96
2023-02-20T10:25:12.535Z,51.15
2023-02-20T10:30:20.139Z,50.92
2023-02-20T10:35:26.250Z,50.80
2023-02-20T10:40:33.302Z,50.43
2023-02-20T10:45:44.425Z,50.10
2023-02-20T10:50:52.041Z,50.40
2023-02-20T10:56:00.472Z,51.62
2023-02-20T11:01:06.423Z,49.92
2023-02-20T11:06:10.649Z,50.20
2023-02-20T11:11:24.857Z,49.45
2023-02-20T11:16:31.729Z,48.50
2023-02-20T11:21:38.296Z,48.52
2023-02-20T11:26:38.985Z,48.34
2023-02-20T11:31:42.167Z,48.40
2023-02-20T11:36:46.355Z,49.54
2023-02-20T11:41:47.047Z,48.41
2023-02-20T11:46:49.709Z,47.51
2023-02-20T11:51:50.380Z,47.14
2023-02-20T11:56:56.884Z,45.68
2023-02-20T12:02:12.686Z,45.25
2023-02-20T12:07:28.285Z,45.23
2023-02-20T12:12:31.317Z,45.03
2023-02-20T12:17:39.930Z,45.73
2023-02-20T12:22:46.862Z,45.39
2023-02-20T12:28:00.283Z,45.76
2023-02-20T12:33:19.668Z,45.76
2023-02-20T12:38:33.658Z,45.99
2023-02-20T12:43:44.633Z,46.39
2023-02-20T12:49:00.324Z,45.44
2023-02-20T12:54:18.345Z,45.56
2023-02-20T12:59:28.601Z,46.12
2023-02-20T13:04:46.368Z,46.56
2023-02-20T13:10:00.845Z,46.88
2023-02-20T13:15:14.268Z,47.64
2023-02-20T13:20:20.831Z,47.61
2023-02-20T13:25:43.659Z,48.09
2023-02-20T13:30:44.340Z,48.76
2023-02-20T13:35:54.004Z,48.80
2023-02-20T13:41:09.193Z,49.75
2023-02-20T13:46:17.981Z,49.08
2023-02-20T13:51:38.289Z,49.61
2023-02-20T13:56:48.200Z,50.42
2023-02-20T14:01:56.886Z,50.42
2023-02-20T14:06:59.528Z,50.04
2023-02-20T14:12:08.083Z,50.07
2023-02-20T14:17:13.721Z,49.80
2023-02-20T14:22:24.601Z,50.88
2023-02-20T14:27:27.937Z,49.80
2023-02-20T14:32:28.758Z,50.59
2023-02-20T14:37:37.991Z,50.64
2023-02-20T14:42:42.938Z,51.26
2023-02-20T14:47:53.932Z,51.61
2023-02-20T14:53:15.737Z,51.26
2023-02-20T14:58:24.338Z,50.96
2023-02-20T15:03:30.993Z,52.13
2023-02-20T15:08:36.458Z,52.22
2023-02-20T15:13:40.132Z,52.46
2023-02-20T15:18:43.049Z,53.08
2023-02-20T15:23:46.562Z,53.12
2023-02-20T15:28:47.342Z,53.55
2023-02-20T15:33:50.680Z,53.43
2023-02-20T15:38:55.606Z,54.17
2023-02-20T15:43:56.490Z,53.48
2023-02-20T15:48:57.564Z,54.66
2023-02-20T15:54:00.170Z,54.31
2023-02-20T15:59:07.620Z,54.19
2023-02-20T16:04:09.211Z,54.41
2023-02-20T16:09:11.605Z,55.53
2023-02-20T16:14:14.582Z,55.09
2023-02-20T16:19:17.551Z,55.35
2023-02-20T16:24:19.759Z,55.72
2023-02-20T16:29:22.937Z,55.58
2023-02-20T16:34:25.490Z,56.68
2023-02-20T16:39:27.843Z,56.36
2023-02-20T16:44:35.642Z,56.84
2023-02-20T16:49:38.212Z,57.98
2023-02-20T16:54:40.329Z,56.98
2023-02-20T16:59:41.397Z,58.19
2023-02-20T17:04:42.148Z,58.48
2023-02-20T17:09:46.616Z,58.19
2023-02-20T17:14:49.197Z,58.03
2023-02-20T17:19:52.781Z,58.54
2023-02-20T17:24:55.778Z,58.31
2023-02-20T17:29:57.871Z,58.28
2023-02-20T17:34:58.625Z,58.53
2023-02-20T17:40:00.676Z,58.34
2023-02-20T17:45:01.567Z,58.15
2023-02-20T17:50:02.239Z,58.06
2023-02-20T17:55:04.297Z,59.29
2023-02-20T18:00:07.574Z,59.67
2023-02-20T18:05:08.700Z,60.85
2023-02-20T18:10:10.883Z,62.43
2023-02-20T18:15:12.012Z,63.58
2023-02-20T18:20:13.269Z,64.91
2023-02-20T18:25:15.344Z,65.55
2023-02-20T18:30:16.666Z,66.74
2023-02-20T18:35:17.994Z,67.71
2023-02-20T18:40:20.406Z,68.87
2023-02-20T18:45:23.320Z,69.66
2023-02-20T18:50:25.299Z,69.76
2023-02-20T18:55:27.331Z,69.70
2023-02-20T19:00:29.744Z,70.03
2023-02-20T19:05:30.511Z,70.09
2023-02-20T19:10:32.792Z,69.12
2023-02-20T19:15:33.528Z,68.83
2023-02-20T19:20:35.426Z,67.25
2023-02-20T19:25:38.209Z,66.21
2023-02-20T19:30:39.091Z,65.54
2023-02-20T19:35:39.858Z,65.96
2023-02-20T19:40:42.129Z,66.20
2023-02-20T19:45:42.900Z,66.78
2023-02-20T19:50:43.733Z,67.21
2023-02-20T19:55:45.957Z,68.46
2023-02-20T20:00:46.665Z,68.20
2023-02-20T20:05:47.415Z,67.98
2023-02-20T20:10:49.683Z,68.26
2023-02-20T20:15:50.406Z,68.00
2023-02-20T20:20:51.400Z,68.61
2023-02-20T20:25:53.591Z,69.03
2023-02-20T20:30:54.418Z,68.25
2023-02-20T20:35:55.188Z,68.79
2023-02-20T20:40:57.269Z,68.93
2023-02-20T20:45:59.078Z,69.91
2023-02-20T20:50:59.781Z,70.12
2023-02-20T20:56:01.818Z,70.68
2023-02-20T21:01:02.646Z,70.64
2023-02-20T21:06:03.415Z,70.01
2023-02-20T21:11:05.469Z,70.11
2023-02-20T21:16:06.207Z,70.27
2023-02-20T21:21:07.153Z,70.50
2023-02-20T21:26:09.251Z,69.73
2023-02-20T21:31:10.157Z,70.37
2023-02-20T21:36:11.108Z,70.06
2023-02-20T21:41:33.801Z,70.33
2023-02-20T21:46:34.502Z,68.78
2023-02-20T21:51:35.168Z,67.96
2023-02-20T21:56:37.165Z,67.57
2023-02-20T22:01:38.746Z,67.32
2023-02-20T22:06:38.627Z,67.11
2023-02-20T22:11:58.270Z,67.50
2023-02-20T22:17:16.731Z,67.67
2023-02-20T22:22:36.089Z,67.19
2023-02-20T22:27:55.875Z,67.52
2023-02-20T22:33:14.063Z,67.97
2023-02-20T22:38:32.410Z,67.42
2023-02-20T22:43:52.170Z,67.41
2023-02-20T22:49:10.467Z,68.19
2023-02-20T22:54:28.904Z,66.79
2023-02-20T22:59:48.269Z,66.78
2023-02-20T23:05:06.843Z,66.23
2023-02-20T23:10:26.079Z,65.75
2023-02-20T23:15:45.612Z,65.96
2023-02-20T23:21:04.067Z,66.45
2023-02-20T23:26:23.023Z,66.35
2023-02-20T23:31:51.582Z,66.38
2023-02-20T23:37:11.938Z,66.47
2023-02-20T23:42:30.092Z,67.28
2023-02-20T23:47:49.811Z,66.85
2023-02-20T23:53:08.106Z,67.01
2023-02-20T23:58:26.612Z,66.20
